EGAE - Eglinton-Londonderr
Distance from station: E 5mi, 14km
Updated: 04/23/2018 12:50pm
NOT Current
Partly Cloudy
Partly Cloudy
 Wind from WSW
Wind: WSW 21 mph , 33 km/h
Temperature: 50°F , 10°C
Wind Chill: 43°F , 6°C
Dew Point: 45°F , 7°C
Humidity: 82%
Barometer: 29.74 inHg , 1007 hPa
Clouds: Partly Cloudy
Visibility: 6 miles , 10 km
Cloud details: Partly Cloudy 2500 ft
2018/04/23 19:50 EGAE 231950Z 25018KT 9999 SCT025 10/07 Q1007